DW7807 Weather Reports


Display with metric or nautical units.
time (UTC)temp
F
wind
direction
speed
MPH
gust
MPH
rain 1hr
in
rain 24hr
in
rain mn
in
humidity
%
barometer
mb
20210802084542 56 329 0.0 0.0 0.00 0.13 0.00 91 1017.5
20210802083040 57 329 0.0 0.0 0.00 0.13 0.00 91 1017.4
20210802081610 57 329 0.0 0.0 0.00 0.13 0.00 91 1017.1
20210802080046 57 329 0.0 0.0 0.00 0.13 0.00 91 1017.1
20210802074644 57 329 0.0 0.0 0.00 0.13 0.00 90 1017.0
20210802073123 57 329 0.0 0.0 0.00 0.13 0.00 89 1017.0
20210802071557 57 329 0.0 0.0 0.00 0.13 0.00 89 1016.9
20210802070045 58 329 0.0 0.0 0.00 0.13 0.00 88 1016.9
20210802064533 59 329 0.0 0.0 0.00 0.13 0.00 88 1016.8
20210802063106 59 329 0.0 0.0 0.00 0.13 0.00 88 1016.8
20210802061547 59 329 0.0 0.0 0.00 0.13 0.00 87 1016.9
20210802060019 59 329 0.0 0.0 0.00 0.13 0.00 86 1016.6
20210802054512 60 329 0.0 0.0 0.00 0.13 0.00 86 1016.8
20210802053014 60 329 0.0 0.0 0.00 0.13 0.00 86 1016.8
20210802051510 60 329 0.0 0.0 0.00 0.13 0.00 86 1016.7
20210802050056 60 329 0.0 0.0 0.00 0.13 0.00 86 1016.7
20210802044526 60 329 0.0 0.0 0.00 0.13 0.00 85 1016.6
20210802043008 60 329 0.0 0.0 0.00 0.13 0.00 85 1016.6
20210802041516 61 329 0.0 0.0 0.00 0.13 0.00 86 1016.5
20210802040004 60 329 0.0 0.0 0.00 0.13 0.13 87 1016.5
20210802034812 61 329 0.0 0.0 0.00 0.13 0.13 86 1016.7
20210802033305 61 329 0.0 0.0 0.00 0.13 0.13 84 1016.4
20210802031730 62 329 0.0 0.0 0.00 0.13 0.13 84 1016.3
20210802030152 62 329 0.0 0.0 0.00 0.13 0.13 84 1016.1
20210802024734 62 329 0.0 0.0 0.00 0.13 0.13 82 1016.1
20210802023206 63 329 0.0 0.0 0.00 0.13 0.13 82 1015.8
20210802021639 63 329 0.0 0.0 0.00 0.13 0.13 81 1015.8
20210802020218 63 329 0.0 0.0 0.00 0.13 0.13 80 1015.6
20210802014629 64 329 0.0 0.0 0.00 0.13 0.13 79 1015.4
20210802013123 64 329 0.0 0.0 0.00 0.13 0.13 78 1015.0
20210802011726 65 329 0.0 0.0 0.00 0.13 0.13 77 1014.7
20210802010135 65 329 0.0 0.0 0.00 0.13 0.13 76 1014.8
20210802004630 66 338 0.0 8.0 0.00 0.13 0.13 75 1014.5
20210802003133 67 345 2.0 12.0 0.00 0.13 0.13 74 1014.4
20210802001642 68 16 2.0 9.0 0.00 0.13 0.13 73 1014.0
20210802000147 69 308 4.0 11.0 0.00 0.13 0.13 72 1013.6
20210801234711 69 301 4.0 8.0 0.00 0.13 0.13 70 1013.3
20210801233251 69 298 5.0 11.0 0.00 0.13 0.13 69 1013.2
20210801231605 70 279 6.0 10.0 0.00 0.13 0.13 67 1013.2
20210801230112 70 300 0.0 6.0 0.00 0.13 0.13 65 1013.0
20210801224622 71 323 5.0 9.0 0.00 0.13 0.13 63 1012.9
20210801223201 72 306 4.0 12.0 0.00 0.13 0.13 62 1012.8
20210801221609 73 293 4.0 12.0 0.00 0.13 0.13 62 1012.8
20210801220054 73 322 4.0 11.0 0.00 0.13 0.13 61 1012.5
20210801214630 74 293 4.0 11.0 0.00 0.13 0.13 60 1012.6
20210801213056 75 254 3.0 13.0 0.00 0.13 0.13 61 1012.5
20210801211632 74 300 0.0 9.0 0.00 0.13 0.13 63 1012.5
20210801210113 74 285 0.0 2.0 0.00 0.13 0.13 66 1012.4
20210801204554 74 302 0.0 2.0 0.00 0.13 0.13 67 1012.4
20210801203120 74 291 0.0 2.0 0.00 0.13 0.13 70 1012.3
20210801201553 72 275 0.0 1.0 0.00 0.13 0.13 76 1012.2
20210801200058 70 298 0.0 0.0 0.05 0.13 0.13 80 1012.2
20210801194612 70 255 0.0 0.0 0.13 0.13 0.13 84 1012.4
20210801193106 68 205 0.0 0.0 0.13 0.13 0.13 88 1012.4
20210801191546 66 190 0.0 8.0 0.13 0.13 0.13 83 1012.4
20210801190038 71 223 1.0 7.0 0.06 0.06 0.06 74 1013.0
20210801184531 73 272 0.0 1.0 0.00 0.00 0.00 67 1012.4
20210801183034 73 258 0.0 1.0 0.00 0.00 0.00 69 1012.7
20210801181551 72 272 0.0 0.0 0.00 0.00 0.00 70 1012.7
20210801180035 72 277 0.0 1.0 0.00 0.00 0.00 71 1013.0
20210801174524 72 288 0.0 0.0 0.00 0.00 0.00 70 1013.1
20210801173016 71 296 0.0 0.0 0.00 0.00 0.00 72 1013.1
20210801171523 71 296 0.0 0.0 0.00 0.00 0.00 72 1013.1
20210801170050 71 296 0.0 0.0 0.00 0.00 0.00 72 1013.1
20210801164520 71 296 0.0 0.0 0.00 0.00 0.00 67 1013.1
20210801163035 71 296 0.0 0.0 0.00 0.00 0.00 72 1013.2
20210801161528 70 278 0.0 0.0 0.00 0.00 0.00 74 1013.2
20210801160014 69 275 0.0 0.0 0.00 0.00 0.00 77 1013.2
20210801154510 69 271 0.0 0.0 0.00 0.00 0.00 79 1013.2
20210801153217 68 267 0.0 0.0 0.00 0.00 0.00 82 1013.4
20210801151659 67 269 0.0 0.0 0.00 0.00 0.00 85 1013.3
20210801150204 66 255 0.0 0.0 0.00 0.00 0.00 87 1013.3
20210801144730 65 235 0.0 0.0 0.00 0.00 0.00 89 1013.3
20210801143223 65 212 0.0 0.0 0.00 0.00 0.00 90 1013.4
20210801141602 64 213 0.0 0.0 0.00 0.00 0.00 90 1013.3
20210801140135 64 171 0.0 0.0 0.00 0.00 0.00 90 1013.4
20210801134559 63 171 0.0 0.0 0.00 0.00 0.00 90 1013.4
20210801133106 63 164 0.0 0.0 0.00 0.00 0.00 90 1013.3
20210801131648 63 132 0.0 0.0 0.00 0.00 0.00 90 1013.3
20210801130144 63 128 0.0 0.0 0.00 0.00 0.00 90 1013.2
20210801124642 63 128 0.0 0.0 0.00 0.00 0.00 91 1013.1
20210801123158 63 126 0.0 0.0 0.00 0.00 0.00 91 1013.4
20210801121625 63 112 0.0 0.0 0.00 0.00 0.00 90 1013.3
20210801120156 62 111 0.0 0.0 0.00 0.00 0.00 90 1013.4
20210801114624 62 111 0.0 0.0 0.00 0.00 0.00 91 1013.2
20210801113137 62 110 0.0 0.0 0.00 0.00 0.00 91 1013.4
20210801111545 62 109 0.0 0.0 0.00 0.00 0.00 91 1013.2
20210801110055 62 117 0.0 0.0 0.00 0.00 0.00 90 1013.3
20210801104544 62 117 0.0 0.0 0.00 0.00 0.00 90 1013.3
20210801103100 62 117 0.0 0.0 0.00 0.00 0.00 90 1013.1
20210801101609 62 117 0.0 0.0 0.00 0.00 0.00 90 1013.2
20210801100129 62 117 0.0 0.0 0.00 0.00 0.00 89 1013.1
20210801094602 62 117 0.0 0.0 0.00 0.00 0.00 89 1013.2
20210801093056 63 117 0.0 0.0 0.00 0.00 0.00 88 1013.3
20210801091626 63 114 0.0 0.0 0.00 0.00 0.00 87 1013.3
20210801090042 63 113 0.0 0.0 0.00 0.00 0.00 86 1013.4